Airfield :
LOGIN :

Register | Disclaimer

   EN    FR    IT 

 










Legend :    VFR   Marginal VFR   IFR   Intensive IFR   Very Intensive IFR
Visi :
Ceiling :
>= 8 km
>= 3000ft
5 to 8 km
1000 to 3000 ft
1500m to 5 km
500 to 1000 ft
800 to 1500m
200 to 500 ft
< 800m
< 200 ft
Symbols :   Thunderstorms  Fog  Heavy snow  Heavy precipitations  Wind > 20 kt
SIGMETs :     Misc.  Thunderstorms  Icing  Turbulence  Mountain Waves  Volcanic Ashes







- Airport Elevation : 446 ft
- IATA code : VNE
- Download approach charts


LFRV - Vannes-Meucon

CURRENT METAR :
  • 160500Z AUTO 21004KT 170V250 7000 OVC005 14/13 Q1019

EXPIRED METARs :
  • 160430Z AUTO 22005KT 180V250 8000 OVC005 14/13 Q1019
  • 160400Z AUTO 21005KT 180V250 9999 BKN006 OVC010 14/13 Q1019
  • 160330Z AUTO 21004KT 180V240 9999 BKN011 BKN018 OVC023 13/13 Q1019
  • 160300Z AUTO 22005KT 180V260 9000 BKN005 BKN009 OVC018 13/13 Q1018
  • 160230Z AUTO 22005KT 180V260 7000 -RADZ SCT007 BKN013 OVC021 13/13 Q1019

TAF N/A
No reported NOTAMs for that airfield.



MET'MAP, your aeronautical weather chart ! - Copyright ORBIFLY December 2007 - Disclaimer

ORBIFLY MET'MAP TEAM :

Programming & Development : Alexandra Zaïnal
Concept & Development : Baudouin d'Aumeries
Co-Development & Prog : Marc-Olivier Méhu
Technical & hardware support : Manuel Goepfert

Contact : metmap@orbifly.com




SOURCES & CREDITS :

   NOAA